sensor_id;sensor_type;location;lat;lon;timestamp;pressure;altitude;pressure_sealevel;temperature;humidity
4085;BME280;2057;50.858;6.572;2022-08-03T00:01:33;100340.06;;;21.30;76.97
4085;BME280;2057;50.858;6.572;2022-08-03T00:03:59;100336.53;;;20.98;78.58
4085;BME280;2057;50.858;6.572;2022-08-03T00:06:24;100334.84;;;21.10;77.82
4085;BME280;2057;50.858;6.572;2022-08-03T00:08:50;100338.28;;;21.12;77.69
4085;BME280;2057;50.858;6.572;2022-08-03T00:11:16;100337.47;;;21.27;77.00
4085;BME280;2057;50.858;6.572;2022-08-03T00:13:42;100340.00;;;21.07;78.52
4085;BME280;2057;50.858;6.572;2022-08-03T00:16:08;100335.69;;;21.12;78.56
4085;BME280;2057;50.858;6.572;2022-08-03T00:18:35;100334.88;;;21.19;77.56
4085;BME280;2057;50.858;6.572;2022-08-03T00:21:00;100328.78;;;21.02;78.81
4085;BME280;2057;50.858;6.572;2022-08-03T00:23:26;100327.97;;;21.16;77.73
4085;BME280;2057;50.858;6.572;2022-08-03T00:25:51;100324.53;;;21.18;77.95
4085;BME280;2057;50.858;6.572;2022-08-03T00:28:17;100332.25;;;21.07;78.68
4085;BME280;2057;50.858;6.572;2022-08-03T00:30:42;100336.56;;;21.19;78.15
4085;BME280;2057;50.858;6.572;2022-08-03T00:33:07;100323.63;;;21.05;78.18
4085;BME280;2057;50.858;6.572;2022-08-03T00:35:34;100323.63;;;20.98;78.78
4085;BME280;2057;50.858;6.572;2022-08-03T00:38:00;100325.31;;;20.89;79.18
4085;BME280;2057;50.858;6.572;2022-08-03T00:40:25;100320.97;;;20.78;79.66
4085;BME280;2057;50.858;6.572;2022-08-03T00:42:52;100327.03;;;20.91;79.51
4085;BME280;2057;50.858;6.572;2022-08-03T00:45:23;100323.59;;;20.92;79.25
4085;BME280;2057;50.858;6.572;2022-08-03T00:47:49;100324.50;;;21.05;78.48
4085;BME280;2057;50.858;6.572;2022-08-03T00:50:16;100317.59;;;20.99;78.67
4085;BME280;2057;50.858;6.572;2022-08-03T00:52:41;100314.13;;;20.94;78.71
4085;BME280;2057;50.858;6.572;2022-08-03T00:55:08;100311.53;;;20.88;79.57
4085;BME280;2057;50.858;6.572;2022-08-03T00:57:34;100312.38;;;20.81;80.03
4085;BME280;2057;50.858;6.572;2022-08-03T00:59:59;100304.50;;;20.64;80.32
4085;BME280;2057;50.858;6.572;2022-08-03T01:02:28;100309.59;;;20.48;81.04
4085;BME280;2057;50.858;6.572;2022-08-03T01:04:54;100307.94;;;20.58;80.78
4085;BME280;2057;50.858;6.572;2022-08-03T01:07:45;100313.22;;;20.78;80.86
4085;BME280;2057;50.858;6.572;2022-08-03T01:18:46;100304.59;;;20.76;80.49
4085;BME280;2057;50.858;6.572;2022-08-03T01:21:42;100306.22;;;20.63;80.57
4085;BME280;2057;50.858;6.572;2022-08-03T01:24:14;100301.06;;;20.59;80.95
4085;BME280;2057;50.858;6.572;2022-08-03T01:26:54;100303.56;;;20.45;82.38
4085;BME280;2057;50.858;6.572;2022-08-03T01:32:19;100298.41;;;20.46;81.95
4085;BME280;2057;50.858;6.572;2022-08-03T01:34:49;100306.13;;;20.42;82.51
4085;BME280;2057;50.858;6.572;2022-08-03T01:37:35;100307.00;;;20.48;82.48
4085;BME280;2057;50.858;6.572;2022-08-03T01:40:02;100303.56;;;20.46;82.24
4085;BME280;2057;50.858;6.572;2022-08-03T01:42:30;100297.56;;;20.47;82.91
4085;BME280;2057;50.858;6.572;2022-08-03T01:44:57;100299.25;;;20.44;82.47
4085;BME280;2057;50.858;6.572;2022-08-03T01:47:26;100297.59;;;20.57;81.32
4085;BME280;2057;50.858;6.572;2022-08-03T01:49:54;100300.22;;;20.64;80.26
4085;BME280;2057;50.858;6.572;2022-08-03T01:52:22;100293.44;;;20.76;80.71
4085;BME280;2057;50.858;6.572;2022-08-03T01:54:50;100290.81;;;20.74;80.43
4085;BME280;2057;50.858;6.572;2022-08-03T01:57:18;100296.78;;;20.65;81.62
4085;BME280;2057;50.858;6.572;2022-08-03T01:59:46;100295.91;;;20.62;81.13
4085;BME280;2057;50.858;6.572;2022-08-03T02:02:13;100292.44;;;20.55;81.76
4085;BME280;2057;50.858;6.572;2022-08-03T02:04:41;100291.59;;;20.56;82.21
4085;BME280;2057;50.858;6.572;2022-08-03T02:07:08;100291.59;;;20.59;80.84
4085;BME280;2057;50.858;6.572;2022-08-03T02:09:37;100293.38;;;20.66;80.36
4085;BME280;2057;50.858;6.572;2022-08-03T02:12:07;100283.91;;;20.72;79.79
4085;BME280;2057;50.858;6.572;2022-08-03T02:14:33;100286.56;;;20.82;79.73
4085;BME280;2057;50.858;6.572;2022-08-03T02:17:00;100291.72;;;20.82;79.64
4085;BME280;2057;50.858;6.572;2022-08-03T02:19:26;100289.94;;;20.67;79.96
4085;BME280;2057;50.858;6.572;2022-08-03T02:21:52;100291.59;;;20.55;80.65
4085;BME280;2057;50.858;6.572;2022-08-03T02:24:18;100284.78;;;20.67;80.71
4085;BME280;2057;50.858;6.572;2022-08-03T02:26:44;100283.81;;;20.51;81.76
4085;BME280;2057;50.858;6.572;2022-08-03T02:29:19;100286.41;;;20.50;82.61
4085;BME280;2057;50.858;6.572;2022-08-03T02:31:46;100288.19;;;20.66;81.12
4085;BME280;2057;50.858;6.572;2022-08-03T02:34:14;100281.38;;;20.75;79.76
4085;BME280;2057;50.858;6.572;2022-08-03T02:36:41;100286.47;;;20.65;79.69
4085;BME280;2057;50.858;6.572;2022-08-03T02:39:12;100283.84;;;20.59;80.09
4085;BME280;2057;50.858;6.572;2022-08-03T02:41:44;100284.66;;;20.47;80.78
4085;BME280;2057;50.858;6.572;2022-08-03T02:44:11;100291.53;;;20.42;81.27
4085;BME280;2057;50.858;6.572;2022-08-03T02:46:40;100288.09;;;20.51;80.86
4085;BME280;2057;50.858;6.572;2022-08-03T02:49:08;100289.88;;;20.58;81.38
4085;BME280;2057;50.858;6.572;2022-08-03T02:51:38;100284.69;;;20.52;81.93
4085;BME280;2057;50.858;6.572;2022-08-03T02:54:06;100286.41;;;20.50;82.02
4085;BME280;2057;50.858;6.572;2022-08-03T02:56:34;100281.19;;;20.37;82.65
4085;BME280;2057;50.858;6.572;2022-08-03T02:59:00;100278.56;;;20.34;82.15
4085;BME280;2057;50.858;6.572;2022-08-03T03:01:27;100275.16;;;20.32;82.65
4085;BME280;2057;50.858;6.572;2022-08-03T03:03:55;100274.28;;;20.35;82.52
4085;BME280;2057;50.858;6.572;2022-08-03T03:06:25;100277.59;;;20.17;82.21
4085;BME280;2057;50.858;6.572;2022-08-03T03:08:51;100278.41;;;20.05;82.58
4085;BME280;2057;50.858;6.572;2022-08-03T03:11:20;100269.81;;;20.06;83.18
4085;BME280;2057;50.858;6.572;2022-08-03T03:13:47;100270.69;;;20.10;83.10
4085;BME280;2057;50.858;6.572;2022-08-03T03:16:14;100280.16;;;20.09;82.33
4085;BME280;2057;50.858;6.572;2022-08-03T03:18:42;100286.94;;;19.98;82.66
4085;BME280;2057;50.858;6.572;2022-08-03T03:21:09;100287.78;;;19.95;82.98
4085;BME280;2057;50.858;6.572;2022-08-03T03:23:36;100285.19;;;19.90;83.58
4085;BME280;2057;50.858;6.572;2022-08-03T03:26:03;100286.94;;;19.98;82.60
4085;BME280;2057;50.858;6.572;2022-08-03T03:28:29;100286.72;;;19.73;83.33
4085;BME280;2057;50.858;6.572;2022-08-03T03:30:56;100281.59;;;19.73;84.24
4085;BME280;2057;50.858;6.572;2022-08-03T03:33:22;100286.56;;;19.53;85.99
4085;BME280;2057;50.858;6.572;2022-08-03T03:35:48;100283.97;;;19.50;86.57
4085;BME280;2057;50.858;6.572;2022-08-03T03:38:14;100289.00;;;19.39;86.61
4085;BME280;2057;50.858;6.572;2022-08-03T03:40:40;100291.59;;;19.37;85.79
4085;BME280;2057;50.858;6.572;2022-08-03T03:43:09;100287.38;;;19.46;85.82
4085;BME280;2057;50.858;6.572;2022-08-03T03:45:35;100288.97;;;19.33;86.80
4085;BME280;2057;50.858;6.572;2022-08-03T03:48:03;100293.09;;;19.17;87.60
4085;BME280;2057;50.858;6.572;2022-08-03T03:50:31;100278.34;;;19.03;87.78
4085;BME280;2057;50.858;6.572;2022-08-03T03:52:56;100295.66;;;19.17;87.81
4085;BME280;2057;50.858;6.572;2022-08-03T03:55:22;100293.78;;;19.02;89.00
4085;BME280;2057;50.858;6.572;2022-08-03T03:57:48;100290.22;;;18.92;88.38
4085;BME280;2057;50.858;6.572;2022-08-03T04:00:14;100292.88;;;18.96;88.71
4085;BME280;2057;50.858;6.572;2022-08-03T04:02:40;100296.03;;;18.78;89.96
4085;BME280;2057;50.858;6.572;2022-08-03T04:05:06;100300.28;;;18.73;91.26
4085;BME280;2057;50.858;6.572;2022-08-03T04:07:57;100294.31;;;18.77;90.67
4085;BME280;2057;50.858;6.572;2022-08-03T04:10:42;100293.66;;;18.92;90.24
4085;BME280;2057;50.858;6.572;2022-08-03T04:13:37;100293.03;;;19.10;89.12
4085;BME280;2057;50.858;6.572;2022-08-03T04:16:05;100291.41;;;19.20;87.28
4085;BME280;2057;50.858;6.572;2022-08-03T04:18:34;100293.06;;;19.15;88.08
4085;BME280;2057;50.858;6.572;2022-08-03T04:21:03;100293.56;;;18.88;90.29
4085;BME280;2057;50.858;6.572;2022-08-03T04:23:33;100297.13;;;18.93;91.54
4085;BME280;2057;50.858;6.572;2022-08-03T04:26:01;100304.13;;;19.06;89.20
4085;BME280;2057;50.858;6.572;2022-08-03T04:28:30;100306.38;;;18.81;90.67
4085;BME280;2057;50.858;6.572;2022-08-03T04:30:57;100308.56;;;18.50;92.29
4085;BME280;2057;50.858;6.572;2022-08-03T04:33:25;100306.84;;;18.51;94.29
4085;BME280;2057;50.858;6.572;2022-08-03T04:35:53;100311.56;;;18.85;92.48
4085;BME280;2057;50.858;6.572;2022-08-03T04:38:22;100305.66;;;18.92;90.98
4085;BME280;2057;50.858;6.572;2022-08-03T04:40:49;100307.53;;;19.02;90.95
4085;BME280;2057;50.858;6.572;2022-08-03T04:43:17;100311.72;;;18.97;89.99
4085;BME280;2057;50.858;6.572;2022-08-03T04:45:46;100305.69;;;18.95;90.70
4085;BME280;2057;50.858;6.572;2022-08-03T04:48:13;100305.59;;;18.89;90.47
4085;BME280;2057;50.858;6.572;2022-08-03T04:50:40;100301.53;;;19.05;91.24
4085;BME280;2057;50.858;6.572;2022-08-03T04:53:06;100307.78;;;19.27;89.54
4085;BME280;2057;50.858;6.572;2022-08-03T04:55:32;100308.69;;;19.31;88.46
4085;BME280;2057;50.858;6.572;2022-08-03T04:57:58;100302.78;;;19.42;88.75
4085;BME280;2057;50.858;6.572;2022-08-03T05:00:25;100301.94;;;19.47;88.21
4085;BME280;2057;50.858;6.572;2022-08-03T05:02:51;100302.88;;;19.50;88.37
4085;BME280;2057;50.858;6.572;2022-08-03T05:05:17;100308.16;;;19.67;86.60
4085;BME280;2057;50.858;6.572;2022-08-03T05:07:43;100303.88;;;19.71;86.75
4085;BME280;2057;50.858;6.572;2022-08-03T05:10:10;100303.84;;;19.63;87.95
4085;BME280;2057;50.858;6.572;2022-08-03T05:12:35;100304.84;;;19.81;87.13
4085;BME280;2057;50.858;6.572;2022-08-03T05:15:01;100304.91;;;19.90;85.55
4085;BME280;2057;50.858;6.572;2022-08-03T05:17:27;100309.91;;;19.74;87.64
4085;BME280;2057;50.858;6.572;2022-08-03T05:19:53;100308.09;;;19.61;88.36
4085;BME280;2057;50.858;6.572;2022-08-03T05:22:19;100310.81;;;19.75;86.10
4085;BME280;2057;50.858;6.572;2022-08-03T05:24:44;100313.63;;;20.04;84.67
4085;BME280;2057;50.858;6.572;2022-08-03T05:27:09;100317.69;;;19.76;87.32
4085;BME280;2057;50.858;6.572;2022-08-03T05:29:41;100315.03;;;19.70;87.32
4085;BME280;2057;50.858;6.572;2022-08-03T05:32:07;100319.25;;;19.62;89.28
4085;BME280;2057;50.858;6.572;2022-08-03T05:34:32;100321.13;;;19.78;89.64
4085;BME280;2057;50.858;6.572;2022-08-03T05:36:58;100311.72;;;19.83;88.33
4085;BME280;2057;50.858;6.572;2022-08-03T05:39:23;100309.34;;;20.05;87.47
4085;BME280;2057;50.858;6.572;2022-08-03T05:41:49;100311.09;;;20.11;88.09
4085;BME280;2057;50.858;6.572;2022-08-03T05:44:14;100306.09;;;20.34;86.29
4085;BME280;2057;50.858;6.572;2022-08-03T05:46:39;100311.28;;;20.45;86.07
4085;BME280;2057;50.858;6.572;2022-08-03T05:49:05;100305.34;;;20.61;85.27
4085;BME280;2057;50.858;6.572;2022-08-03T05:51:30;100312.22;;;20.56;85.73
4085;BME280;2057;50.858;6.572;2022-08-03T05:53:56;100312.22;;;20.55;86.36
4085;BME280;2057;50.858;6.572;2022-08-03T05:56:22;100317.34;;;20.53;87.20
4085;BME280;2057;50.858;6.572;2022-08-03T05:58:49;100312.34;;;20.75;86.32
4085;BME280;2057;50.858;6.572;2022-08-03T06:01:16;100327.88;;;20.87;87.29
4085;BME280;2057;50.858;6.572;2022-08-03T06:03:42;100319.28;;;20.94;86.83
4085;BME280;2057;50.858;6.572;2022-08-03T06:06:07;100326.16;;;20.88;87.32
4085;BME280;2057;50.858;6.572;2022-08-03T06:08:33;100321.91;;;21.04;86.18
4085;BME280;2057;50.858;6.572;2022-08-03T06:10:58;100317.66;;;21.24;85.69
4085;BME280;2057;50.858;6.572;2022-08-03T06:13:24;100316.78;;;21.22;86.53
4085;BME280;2057;50.858;6.572;2022-08-03T06:15:49;100320.25;;;21.30;86.11
4085;BME280;2057;50.858;6.572;2022-08-03T06:18:14;100317.69;;;21.37;86.98
4085;BME280;2057;50.858;6.572;2022-08-03T06:20:40;100320.28;;;21.44;86.71
4085;BME280;2057;50.858;6.572;2022-08-03T06:23:05;100318.59;;;21.60;85.56
4085;BME280;2057;50.858;6.572;2022-08-03T06:25:31;100326.38;;;21.74;84.86
4085;BME280;2057;50.858;6.572;2022-08-03T06:27:56;100328.97;;;21.84;84.35
4085;BME280;2057;50.858;6.572;2022-08-03T06:30:23;100324.63;;;21.95;84.53
4085;BME280;2057;50.858;6.572;2022-08-03T06:32:49;100320.34;;;22.05;83.39
4085;BME280;2057;50.858;6.572;2022-08-03T06:35:15;100322.88;;;22.08;82.90
4085;BME280;2057;50.858;6.572;2022-08-03T06:37:44;100327.16;;;22.24;81.76
4085;BME280;2057;50.858;6.572;2022-08-03T06:40:18;100321.13;;;22.38;81.42
4085;BME280;2057;50.858;6.572;2022-08-03T06:42:44;100329.75;;;22.49;80.40
4085;BME280;2057;50.858;6.572;2022-08-03T06:45:11;100332.31;;;22.55;81.97
4085;BME280;2057;50.858;6.572;2022-08-03T06:47:38;100327.97;;;22.64;81.29
4085;BME280;2057;50.858;6.572;2022-08-03T06:50:05;100327.91;;;22.79;80.87
4085;BME280;2057;50.858;6.572;2022-08-03T06:52:31;100319.25;;;22.86;80.49
4085;BME280;2057;50.858;6.572;2022-08-03T06:54:57;100325.28;;;22.92;80.10
4085;BME280;2057;50.858;6.572;2022-08-03T06:57:23;100319.22;;;22.99;79.02
4085;BME280;2057;50.858;6.572;2022-08-03T06:59:48;100323.47;;;23.11;79.01
4085;BME280;2057;50.858;6.572;2022-08-03T07:02:13;100321.72;;;23.19;79.34
4085;BME280;2057;50.858;6.572;2022-08-03T07:04:39;100319.91;;;23.33;78.82
4085;BME280;2057;50.858;6.572;2022-08-03T07:07:04;100320.66;;;23.53;77.83
4085;BME280;2057;50.858;6.572;2022-08-03T07:09:29;100318.84;;;23.59;77.94
4085;BME280;2057;50.858;6.572;2022-08-03T07:11:55;100321.44;;;23.62;77.82
4085;BME280;2057;50.858;6.572;2022-08-03T07:14:21;100324.78;;;23.75;77.04
4085;BME280;2057;50.858;6.572;2022-08-03T07:16:47;100322.97;;;23.87;76.02
4085;BME280;2057;50.858;6.572;2022-08-03T07:19:12;100317.78;;;23.84;76.35
4085;BME280;2057;50.858;6.572;2022-08-03T07:21:37;100325.50;;;23.94;75.49
4085;BME280;2057;50.858;6.572;2022-08-03T07:24:03;100325.38;;;24.11;75.05
4085;BME280;2057;50.858;6.572;2022-08-03T07:26:29;100328.75;;;24.18;74.36
4085;BME280;2057;50.858;6.572;2022-08-03T07:28:54;100332.06;;;24.33;72.73
4085;BME280;2057;50.858;6.572;2022-08-03T07:31:19;100327.81;;;24.25;72.36
4085;BME280;2057;50.858;6.572;2022-08-03T07:33:45;100331.19;;;24.34;71.55
4085;BME280;2057;50.858;6.572;2022-08-03T07:36:10;100328.44;;;24.46;69.69
4085;BME280;2057;50.858;6.572;2022-08-03T07:38:36;100326.59;;;24.57;69.87
4085;BME280;2057;50.858;6.572;2022-08-03T07:41:01;100329.13;;;24.64;69.35
4085;BME280;2057;50.858;6.572;2022-08-03T07:43:27;100326.44;;;24.74;68.10
4085;BME280;2057;50.858;6.572;2022-08-03T07:45:52;100324.66;;;24.77;68.51
4085;BME280;2057;50.858;6.572;2022-08-03T07:48:18;100327.03;;;24.95;67.45
4085;BME280;2057;50.858;6.572;2022-08-03T07:50:43;100331.28;;;25.01;66.93
4085;BME280;2057;50.858;6.572;2022-08-03T07:53:09;100332.94;;;25.06;66.50
4085;BME280;2057;50.858;6.572;2022-08-03T07:55:34;100320.34;;;25.41;65.81
4085;BME280;2057;50.858;6.572;2022-08-03T07:58:07;100321.31;;;25.32;65.73
4085;BME280;2057;50.858;6.572;2022-08-03T08:00:43;100324.72;;;25.36;65.01
4085;BME280;2057;50.858;6.572;2022-08-03T08:03:09;100324.66;;;25.44;64.08
4085;BME280;2057;50.858;6.572;2022-08-03T08:05:35;100325.47;;;25.46;63.99
4085;BME280;2057;50.858;6.572;2022-08-03T08:08:01;100320.22;;;25.50;64.05
4085;BME280;2057;50.858;6.572;2022-08-03T08:10:27;100315.66;;;25.63;63.97
4085;BME280;2057;50.858;6.572;2022-08-03T08:12:53;100324.19;;;25.73;63.19
4085;BME280;2057;50.858;6.572;2022-08-03T08:15:18;100317.97;;;25.82;62.67
4085;BME280;2057;50.858;6.572;2022-08-03T08:20:14;100319.13;;;26.17;60.48
4085;BME280;2057;50.858;6.572;2022-08-03T08:22:39;100320.91;;;26.13;60.89
4085;BME280;2057;50.858;6.572;2022-08-03T08:25:05;100323.44;;;26.18;61.83
4085;BME280;2057;50.858;6.572;2022-08-03T08:27:30;100322.38;;;26.28;61.65
4085;BME280;2057;50.858;6.572;2022-08-03T08:29:56;100320.84;;;26.18;61.13
4085;BME280;2057;50.858;6.572;2022-08-03T08:32:21;100321.28;;;26.40;61.39
4085;BME280;2057;50.858;6.572;2022-08-03T08:34:46;100318.53;;;26.48;61.61
4085;BME280;2057;50.858;6.572;2022-08-03T08:37:12;100324.06;;;26.76;59.83
4085;BME280;2057;50.858;6.572;2022-08-03T08:39:37;100320.50;;;26.81;59.30
4085;BME280;2057;50.858;6.572;2022-08-03T08:42:02;100320.28;;;26.91;59.13
4085;BME280;2057;50.858;6.572;2022-08-03T08:44:28;100318.28;;;27.04;59.59
4085;BME280;2057;50.858;6.572;2022-08-03T08:46:54;100319.06;;;27.06;59.20
4085;BME280;2057;50.858;6.572;2022-08-03T08:49:22;100320.97;;;27.00;58.72
4085;BME280;2057;50.858;6.572;2022-08-03T08:51:53;100315.22;;;27.23;57.95
4085;BME280;2057;50.858;6.572;2022-08-03T08:54:20;100318.03;;;27.15;57.96
4085;BME280;2057;50.858;6.572;2022-08-03T08:56:48;100311.41;;;27.00;57.96
4085;BME280;2057;50.858;6.572;2022-08-03T08:59:15;100315.31;;;27.18;59.87
4085;BME280;2057;50.858;6.572;2022-08-03T09:01:40;100306.78;;;27.52;57.31
4085;BME280;2057;50.858;6.572;2022-08-03T09:04:06;100297.72;;;27.66;56.42
4085;BME280;2057;50.858;6.572;2022-08-03T09:06:31;100295.53;;;27.83;54.54
4085;BME280;2057;50.858;6.572;2022-08-03T09:08:57;100302.56;;;28.16;53.98
4085;BME280;2057;50.858;6.572;2022-08-03T09:11:22;100311.16;;;28.20;52.37
4085;BME280;2057;50.858;6.572;2022-08-03T09:13:48;100310.41;;;28.14;53.64
4085;BME280;2057;50.858;6.572;2022-08-03T09:16:16;100306.84;;;28.18;53.14
4085;BME280;2057;50.858;6.572;2022-08-03T09:18:45;100310.03;;;28.28;52.40
4085;BME280;2057;50.858;6.572;2022-08-03T09:24:05;100311.19;;;28.49;51.26
4085;BME280;2057;50.858;6.572;2022-08-03T09:26:33;100316.41;;;28.49;51.03
4085;BME280;2057;50.858;6.572;2022-08-03T09:29:09;100316.13;;;28.60;50.55
4085;BME280;2057;50.858;6.572;2022-08-03T09:31:40;100318.06;;;28.54;50.62
4085;BME280;2057;50.858;6.572;2022-08-03T09:34:08;100308.56;;;28.49;50.87
4085;BME280;2057;50.858;6.572;2022-08-03T09:39:02;100307.78;;;28.47;52.22
4085;BME280;2057;50.858;6.572;2022-08-03T09:41:31;100308.31;;;28.59;50.80
4085;BME280;2057;50.858;6.572;2022-08-03T09:43:56;100310.13;;;28.57;50.21
4085;BME280;2057;50.858;6.572;2022-08-03T09:46:21;100310.06;;;28.90;50.04
4085;BME280;2057;50.858;6.572;2022-08-03T09:48:47;100313.81;;;29.09;48.76
4085;BME280;2057;50.858;6.572;2022-08-03T09:51:12;100309.72;;;29.01;48.75
4085;BME280;2057;50.858;6.572;2022-08-03T09:53:43;100304.44;;;29.02;49.30
4085;BME280;2057;50.858;6.572;2022-08-03T09:56:09;100302.84;;;28.98;50.12
4085;BME280;2057;50.858;6.572;2022-08-03T09:58:44;100300.91;;;29.33;49.03
4085;BME280;2057;50.858;6.572;2022-08-03T10:01:11;100301.41;;;29.45;48.24
4085;BME280;2057;50.858;6.572;2022-08-03T10:03:38;100295.06;;;29.23;48.27
4085;BME280;2057;50.858;6.572;2022-08-03T10:06:19;100291.84;;;29.15;49.15
4085;BME280;2057;50.858;6.572;2022-08-03T10:08:46;100290.47;;;29.32;48.18
4085;BME280;2057;50.858;6.572;2022-08-03T10:11:30;100297.78;;;29.76;46.97
4085;BME280;2057;50.858;6.572;2022-08-03T10:13:56;100295.63;;;29.62;46.66
4085;BME280;2057;50.858;6.572;2022-08-03T10:16:22;100293.16;;;29.57;46.28
4085;BME280;2057;50.858;6.572;2022-08-03T10:18:47;100285.81;;;29.41;46.44
4085;BME280;2057;50.858;6.572;2022-08-03T10:21:16;100275.75;;;29.56;46.80
4085;BME280;2057;50.858;6.572;2022-08-03T10:23:45;100275.66;;;29.84;46.20
4085;BME280;2057;50.858;6.572;2022-08-03T10:26:12;100279.53;;;29.99;46.45
4085;BME280;2057;50.858;6.572;2022-08-03T10:28:47;100277.31;;;29.87;45.73
4085;BME280;2057;50.858;6.572;2022-08-03T10:31:13;100282.31;;;29.68;47.06
4085;BME280;2057;50.858;6.572;2022-08-03T10:33:42;100265.06;;;29.87;46.05
4085;BME280;2057;50.858;6.572;2022-08-03T10:36:08;100271.16;;;29.88;46.80
4085;BME280;2057;50.858;6.572;2022-08-03T10:38:50;100266.34;;;30.02;45.83
4085;BME280;2057;50.858;6.572;2022-08-03T10:41:20;100263.91;;;29.96;45.93
4085;BME280;2057;50.858;6.572;2022-08-03T10:43:53;100260.38;;;30.23;45.68
4085;BME280;2057;50.858;6.572;2022-08-03T10:46:20;100262.19;;;30.20;45.91
4085;BME280;2057;50.858;6.572;2022-08-03T10:48:47;100251.28;;;30.31;44.96
4085;BME280;2057;50.858;6.572;2022-08-03T10:51:14;100257.16;;;30.38;46.19
4085;BME280;2057;50.858;6.572;2022-08-03T10:53:41;100254.72;;;30.57;44.65
4085;BME280;2057;50.858;6.572;2022-08-03T11:02:10;100248.06;;;30.94;44.30
4085;BME280;2057;50.858;6.572;2022-08-03T11:04:36;100242.81;;;31.17;43.85
4085;BME280;2057;50.858;6.572;2022-08-03T11:09:44;100241.53;;;30.60;44.56
4085;BME280;2057;50.858;6.572;2022-08-03T11:12:24;100240.06;;;30.53;44.07
4085;BME280;2057;50.858;6.572;2022-08-03T11:14:52;100240.88;;;30.77;44.31
4085;BME280;2057;50.858;6.572;2022-08-03T11:17:18;100235.75;;;30.96;43.95
4085;BME280;2057;50.858;6.572;2022-08-03T11:19:48;100234.69;;;31.01;44.53
4085;BME280;2057;50.858;6.572;2022-08-03T11:22:15;100230.38;;;31.00;43.39
4085;BME280;2057;50.858;6.572;2022-08-03T11:30:07;100217.03;;;31.26;43.20
4085;BME280;2057;50.858;6.572;2022-08-03T11:40:43;100224.81;;;31.50;43.85
4085;BME280;2057;50.858;6.572;2022-08-03T11:45:58;100233.50;;;31.73;42.42
4085;BME280;2057;50.858;6.572;2022-08-03T11:50:59;100223.56;;;31.59;42.47
4085;BME280;2057;50.858;6.572;2022-08-03T11:53:24;100222.97;;;31.52;43.52
4085;BME280;2057;50.858;6.572;2022-08-03T11:55:49;100232.56;;;31.74;42.08
4085;BME280;2057;50.858;6.572;2022-08-03T11:58:21;100222.53;;;31.63;42.09
4085;BME280;2057;50.858;6.572;2022-08-03T12:00:48;100219.56;;;31.29;42.65
4085;BME280;2057;50.858;6.572;2022-08-03T12:03:18;100217.81;;;31.71;42.82
4085;BME280;2057;50.858;6.572;2022-08-03T12:05:46;100215.66;;;32.00;42.60
4085;BME280;2057;50.858;6.572;2022-08-03T12:08:14;100225.72;;;31.90;41.48
4085;BME280;2057;50.858;6.572;2022-08-03T12:10:45;100224.06;;;31.69;41.84
4085;BME280;2057;50.858;6.572;2022-08-03T12:13:11;100217.19;;;31.44;42.58
4085;BME280;2057;50.858;6.572;2022-08-03T12:15:36;100210.31;;;31.21;43.46
4085;BME280;2057;50.858;6.572;2022-08-03T12:18:10;100209.59;;;31.79;43.55
4085;BME280;2057;50.858;6.572;2022-08-03T12:20:36;100209.88;;;32.32;41.63
4085;BME280;2057;50.858;6.572;2022-08-03T12:23:06;100212.09;;;32.01;41.88
4085;BME280;2057;50.858;6.572;2022-08-03T12:25:33;100213.09;;;31.99;41.86
4085;BME280;2057;50.858;6.572;2022-08-03T12:30:31;100202.97;;;32.10;41.24
4085;BME280;2057;50.858;6.572;2022-08-03T12:32:57;100204.00;;;32.27;42.15
4085;BME280;2057;50.858;6.572;2022-08-03T12:35:23;100201.84;;;32.54;41.16
4085;BME280;2057;50.858;6.572;2022-08-03T12:37:49;100196.84;;;32.67;40.54
4085;BME280;2057;50.858;6.572;2022-08-03T12:40:23;100207.25;;;32.32;41.12
4085;BME280;2057;50.858;6.572;2022-08-03T12:42:48;100208.06;;;32.13;41.13
4085;BME280;2057;50.858;6.572;2022-08-03T12:45:25;100205.34;;;31.96;41.70
4085;BME280;2057;50.858;6.572;2022-08-03T12:47:58;100211.94;;;32.44;41.30
4085;BME280;2057;50.858;6.572;2022-08-03T12:50:31;100208.28;;;32.66;40.75
4085;BME280;2057;50.858;6.572;2022-08-03T12:52:58;100207.31;;;32.49;40.07
4085;BME280;2057;50.858;6.572;2022-08-03T12:55:24;100206.84;;;31.82;41.33
4085;BME280;2057;50.858;6.572;2022-08-03T12:58:01;100199.59;;;32.46;41.69
4085;BME280;2057;50.858;6.572;2022-08-03T13:00:26;100202.16;;;32.29;41.36
4085;BME280;2057;50.858;6.572;2022-08-03T13:03:05;100195.97;;;32.85;40.94
4085;BME280;2057;50.858;6.572;2022-08-03T13:05:52;100202.72;;;33.09;40.02
4085;BME280;2057;50.858;6.572;2022-08-03T13:08:19;100191.69;;;33.37;40.28
4085;BME280;2057;50.858;6.572;2022-08-03T13:10:44;100190.13;;;33.51;39.47
4085;BME280;2057;50.858;6.572;2022-08-03T13:13:10;100191.44;;;33.42;38.85
4085;BME280;2057;50.858;6.572;2022-08-03T13:15:35;100191.50;;;33.23;39.90
4085;BME280;2057;50.858;6.572;2022-08-03T13:18:01;100184.88;;;33.33;39.08
4085;BME280;2057;50.858;6.572;2022-08-03T13:20:26;100188.44;;;33.50;39.38
4085;BME280;2057;50.858;6.572;2022-08-03T13:22:52;100181.38;;;33.33;38.80
4085;BME280;2057;50.858;6.572;2022-08-03T13:25:18;100188.53;;;33.64;39.59
4085;BME280;2057;50.858;6.572;2022-08-03T13:27:45;100183.38;;;34.12;38.52
4085;BME280;2057;50.858;6.572;2022-08-03T13:30:11;100193.19;;;33.76;38.20
4085;BME280;2057;50.858;6.572;2022-08-03T13:32:36;100183.03;;;33.69;38.44
4085;BME280;2057;50.858;6.572;2022-08-03T13:35:02;100185.56;;;33.88;38.18
4085;BME280;2057;50.858;6.572;2022-08-03T13:37:28;100179.72;;;33.99;38.06
4085;BME280;2057;50.858;6.572;2022-08-03T13:39:56;100169.94;;;34.01;38.78
4085;BME280;2057;50.858;6.572;2022-08-03T13:42:22;100178.13;;;34.28;39.03
4085;BME280;2057;50.858;6.572;2022-08-03T13:44:48;100175.97;;;34.03;38.15
4085;BME280;2057;50.858;6.572;2022-08-03T13:47:13;100174.03;;;33.04;39.20
4085;BME280;2057;50.858;6.572;2022-08-03T13:49:38;100181.84;;;33.41;39.03
4085;BME280;2057;50.858;6.572;2022-08-03T13:52:04;100178.44;;;33.72;38.50
4085;BME280;2057;50.858;6.572;2022-08-03T13:54:29;100173.19;;;34.06;38.53
4085;BME280;2057;50.858;6.572;2022-08-03T13:56:55;100174.19;;;33.36;38.73
4085;BME280;2057;50.858;6.572;2022-08-03T13:59:22;100171.06;;;33.28;38.97
4085;BME280;2057;50.858;6.572;2022-08-03T14:01:49;100168.81;;;33.89;39.28